Time;durP1;ratioP1;P1;durP2;ratioP2;P2;SDS_P1;SDS_P2;PMS_P1;PMS_P2;Temp;Humidity;BMP_temperature;BMP_pressure;BME280_temperature;BME280_humidity;BME280_pressure;Samples;Min_cycle;Max_cycle;Signal;HPM_P1;HPM_P2
2021/07/21 00:00:29;;;;;;;18.17;10.53;;;;;;;18.44;83.16;101717.06;5017565;28;20492;-60
2021/07/21 00:02:57;;;;;;;21.13;12.33;;;;;;;18.16;83.62;101704.19;5017295;28;20750;-60
2021/07/21 00:05:26;;;;;;;17.93;11.27;;;;;;;18.27;83.86;101709.72;5017403;28;20457;-60
2021/07/21 00:07:54;;;;;;;21.53;10.87;;;;;;;18.29;83.39;101705.41;5014083;28;20486;-60
2021/07/21 00:10:25;;;;;;;21.47;11.60;;;;;;;18.32;83.66;101707.22;5017564;28;20566;-60
2021/07/21 00:15:42;;;;;;;19.07;12.63;;;;;;;18.38;83.56;101699.53;5016141;28;20463;-60
2021/07/21 00:18:20;;;;;;;18.53;11.00;;;;;;;18.29;83.66;101701.91;5017492;28;20475;-60
2021/07/21 00:20:48;;;;;;;21.30;11.77;;;;;;;18.30;83.96;101701.06;5016516;28;20484;-60
2021/07/21 00:23:16;;;;;;;21.13;12.00;;;;;;;18.24;84.13;101706.16;5017496;28;20451;-60
2021/07/21 00:25:45;;;;;;;22.60;12.70;;;;;;;18.17;84.29;101703.38;5015948;28;20463;-60
2021/07/21 00:28:13;;;;;;;20.80;11.97;;;;;;;18.19;84.54;101704.28;5016986;28;20488;-60
2021/07/21 00:30:41;;;;;;;20.60;13.10;;;;;;;18.17;84.71;101703.38;5016311;28;20480;-60
2021/07/21 00:33:08;;;;;;;24.43;12.90;;;;;;;18.05;85.16;101697.81;5017190;28;20457;-60
2021/07/21 00:35:37;;;;;;;23.33;13.47;;;;;;;18.08;85.59;101700.53;5015727;28;20456;-60
2021/07/21 00:38:04;;;;;;;19.40;12.27;;;;;;;18.13;85.44;101698.91;5016957;28;20484;-59
2021/07/21 00:40:32;;;;;;;22.50;12.73;;;;;;;18.16;85.56;101700.72;5015737;28;20477;-60
2021/07/21 00:43:01;;;;;;;25.10;15.17;;;;;;;18.18;85.93;101702.53;5016962;28;20485;-60
2021/07/21 00:45:29;;;;;;;24.23;13.00;;;;;;;18.16;85.80;101701.59;5015732;28;20469;-61
2021/07/21 00:47:56;;;;;;;33.93;19.37;;;;;;;18.25;86.27;101706.16;5016109;28;20947;-60
2021/07/21 00:50:24;;;;;;;22.13;12.27;;;;;;;18.12;86.85;101696.25;5014436;28;20781;-59
2021/07/21 00:52:52;;;;;;;22.70;12.07;;;;;;;18.03;87.34;101696.88;5015603;28;20488;-60
2021/07/21 00:55:20;;;;;;;22.30;12.67;;;;;;;17.89;87.55;101689.56;5016687;28;20473;-59
2021/07/21 00:57:47;;;;;;;25.70;13.80;;;;;;;17.86;88.03;101688.59;5015418;28;20778;-59
2021/07/21 01:00:18;;;;;;;20.93;11.53;;;;;;;17.75;88.79;101696.16;5016687;28;20496;-59
2021/07/21 01:02:47;;;;;;;21.33;11.97;;;;;;;17.71;89.34;101699.50;5015301;28;20503;-59
2021/07/21 01:05:18;;;;;;;23.63;13.60;;;;;;;17.87;89.43;101709.53;5016620;28;20457;-59
2021/07/21 01:07:46;;;;;;;23.80;12.60;;;;;;;17.95;89.26;101699.31;5014899;28;20488;-59
2021/07/21 01:10:14;;;;;;;20.13;11.80;;;;;;;17.85;88.96;101702.50;5016355;28;20490;-59
2021/07/21 01:12:46;;;;;;;20.20;11.33;;;;;;;17.81;89.42;101699.78;5015136;28;20478;-59
2021/07/21 01:15:18;;;;;;;21.30;12.27;;;;;;;17.76;89.12;101692.69;5016424;28;20461;-59
2021/07/21 01:17:48;;;;;;;16.33;10.70;;;;;;;17.78;89.39;101697.13;5014957;28;20560;-60
2021/07/21 01:20:45;;;;;;;18.70;11.10;;;;;;;17.79;89.18;101698.00;5016196;28;20482;-59
2021/07/21 01:23:20;;;;;;;21.60;12.17;;;;;;;17.80;89.17;101702.38;5015704;28;20898;-59
2021/07/21 01:25:56;;;;;;;19.70;11.10;;;;;;;17.90;88.44;101700.91;5014959;28;22071;-59
2021/07/21 01:28:28;;;;;;;24.80;12.83;;;;;;;18.11;87.64;101699.72;5016136;28;20776;-59
2021/07/21 01:30:57;;;;;;;20.50;12.03;;;;;;;17.87;88.00;101700.81;5014974;28;20484;-60
2021/07/21 01:33:26;;;;;;;20.03;10.70;;;;;;;18.06;87.72;101699.59;5016352;28;20464;-59
2021/07/21 01:35:57;;;;;;;20.20;10.83;;;;;;;18.02;87.24;101705.56;5014686;28;20481;-60
2021/07/21 01:38:26;;;;;;;15.87;10.10;;;;;;;17.95;87.53;101705.38;4994059;28;20463;-60
2021/07/21 01:40:56;;;;;;;24.10;11.77;;;;;;;17.89;87.93;101705.22;4995150;28;20930;-59
2021/07/21 01:43:28;;;;;;;16.40;9.70;;;;;;;17.82;88.20;101708.53;4996477;28;20462;-60
2021/07/21 01:45:57;;;;;;;20.53;11.77;;;;;;;17.82;88.58;101713.75;4994473;28;20767;-59
2021/07/21 01:48:25;;;;;;;23.30;11.90;;;;;;;17.77;88.74;101711.00;4996295;28;20504;-60
2021/07/21 01:50:56;;;;;;;24.77;12.40;;;;;;;18.04;88.62;101709.97;4997374;28;20560;-60
2021/07/21 01:53:24;;;;;;;25.27;13.50;;;;;;;18.02;88.47;101710.78;4996477;28;20462;-59
2021/07/21 01:55:52;;;;;;;20.33;12.47;;;;;;;17.94;88.49;101710.56;4994735;28;20474;-59
2021/07/21 01:58:19;;;;;;;18.33;12.03;;;;;;;17.90;88.68;101703.50;4996286;28;20468;-59
2021/07/21 02:00:50;;;;;;;21.50;12.63;;;;;;;17.86;89.10;101707.78;4994672;28;20501;-60
2021/07/21 02:03:19;;;;;;;22.50;13.10;;;;;;;17.79;89.69;101713.69;4996168;28;20461;-60
2021/07/21 02:05:48;;;;;;;22.47;12.60;;;;;;;17.61;90.30;101712.31;4994973;28;20506;-59
2021/07/21 02:08:18;;;;;;;23.40;12.83;;;;;;;17.55;90.74;101712.16;4995780;28;20791;-59
2021/07/21 02:10:46;;;;;;;22.53;11.60;;;;;;;17.58;90.96;101704.38;4994794;28;20950;-60
2021/07/21 02:13:17;;;;;;;21.53;13.30;;;;;;;17.62;91.22;101707.97;4996747;28;20971;-59
2021/07/21 02:15:45;;;;;;;25.60;13.40;;;;;;;17.70;91.32;101711.69;4995699;28;20462;-59
2021/07/21 02:18:17;;;;;;;23.67;12.50;;;;;;;17.63;91.22;101705.41;4996132;28;20486;-60
2021/07/21 02:20:46;;;;;;;23.43;13.70;;;;;;;17.54;91.60;101702.56;4994889;28;20536;-59
2021/07/21 02:23:14;;;;;;;21.33;12.77;;;;;;;17.52;92.03;101712.94;4995908;28;20475;-59
2021/07/21 02:25:42;;;;;;;23.70;13.87;;;;;;;17.50;92.50;101709.41;4994529;28;20474;-60
2021/07/21 02:28:10;;;;;;;21.50;13.53;;;;;;;17.41;92.75;101707.44;4995702;28;20488;-59
2021/07/21 02:30:38;;;;;;;28.50;14.80;;;;;;;17.52;92.67;101699.91;4994825;28;20655;-59
2021/07/21 02:33:09;;;;;;;25.40;14.73;;;;;;;17.59;93.03;101706.16;4995636;28;20924;-59
2021/07/21 02:35:38;;;;;;;26.00;14.60;;;;;;;17.60;92.59;101702.72;4994670;28;20482;-59
2021/07/21 02:38:06;;;;;;;24.10;14.77;;;;;;;17.71;92.43;101700.41;4995731;28;20782;-59
2021/07/21 02:40:34;;;;;;;26.73;15.07;;;;;;;17.50;93.00;101695.47;4994633;28;20484;-60
2021/07/21 02:43:02;;;;;;;25.97;14.87;;;;;;;17.43;93.13;101698.75;4995413;28;20491;-59
2021/07/21 02:45:29;;;;;;;25.90;15.00;;;;;;;17.58;93.13;101699.19;4994490;28;20469;-60
2021/07/21 02:47:57;;;;;;;24.57;14.73;;;;;;;17.66;92.78;101697.69;4997999;28;20497;-59
2021/07/21 02:50:25;;;;;;;28.47;14.83;;;;;;;17.57;92.87;101704.38;5015350;28;20489;-59
2021/07/21 02:52:56;;;;;;;35.30;17.03;;;;;;;17.71;92.77;101695.19;5013782;28;20497;-59
2021/07/21 02:55:26;;;;;;;28.10;15.43;;;;;;;17.52;92.58;101704.22;5014945;28;20458;-59
2021/07/21 02:57:57;;;;;;;30.10;15.60;;;;;;;17.59;92.53;101695.72;5017521;28;20479;-59
2021/07/21 03:00:26;;;;;;;31.40;15.60;;;;;;;17.70;92.52;101710.78;5018910;28;20776;-59
2021/07/21 03:02:54;;;;;;;26.00;14.43;;;;;;;17.71;92.10;101700.41;5018321;28;20546;-59
2021/07/21 03:05:24;;;;;;;24.70;14.80;;;;;;;17.52;92.61;101699.91;5018707;28;20847;-59
2021/07/21 03:07:56;;;;;;;27.90;16.57;;;;;;;17.45;93.08;101697.97;5017410;28;20496;-59
2021/07/21 03:10:23;;;;;;;30.23;16.57;;;;;;;17.45;93.53;101702.28;5018972;28;20478;-59
2021/07/21 03:12:54;;;;;;;31.17;16.00;;;;;;;17.61;93.07;101699.28;5017641;28;20495;-60
2021/07/21 03:15:26;;;;;;;29.53;16.27;;;;;;;17.55;92.83;101699.09;5018479;28;20463;-59
2021/07/21 03:17:54;;;;;;;26.40;14.83;;;;;;;17.60;92.41;101697.50;5018211;28;20745;-59
2021/07/21 03:20:22;;;;;;;27.70;15.90;;;;;;;17.70;92.16;101703.88;5018413;28;20509;-59
2021/07/21 03:22:52;;;;;;;27.50;15.30;;;;;;;17.70;92.42;101702.97;5017565;28;20478;-59
2021/07/21 03:25:21;;;;;;;25.73;15.07;;;;;;;17.53;92.65;101695.53;5018351;28;20467;-59
2021/07/21 03:27:50;;;;;;;29.43;15.27;;;;;;;17.52;93.02;101697.28;5017504;28;20485;-59
2021/07/21 03:30:18;;;;;;;28.03;14.37;;;;;;;17.53;92.95;101708.59;5018290;28;20481;-59
2021/07/21 03:32:47;;;;;;;30.93;15.67;;;;;;;17.71;92.53;101700.41;5017022;28;20482;-59
2021/07/21 03:35:16;;;;;;;24.67;14.87;;;;;;;17.49;92.59;101698.94;5018525;28;20490;-59
2021/07/21 03:37:46;;;;;;;26.73;13.93;;;;;;;17.47;92.74;101703.19;5016713;28;20481;-59
2021/07/21 03:40:16;;;;;;;23.60;13.97;;;;;;;17.44;93.05;101701.41;5018318;28;20481;-59
2021/07/21 03:42:50;;;;;;;26.30;14.70;;;;;;;17.43;92.92;101698.75;5016839;28;20490;-59
2021/07/21 03:45:18;;;;;;;27.17;13.40;;;;;;;17.65;92.69;101701.09;5017968;28;20460;-59
2021/07/21 03:47:46;;;;;;;25.53;13.53;;;;;;;17.80;91.82;101705.00;5016600;28;20578;-59
2021/07/21 03:50:18;;;;;;;31.10;17.60;;;;;;;17.74;91.52;101707.44;5018116;28;20495;-59
2021/07/21 03:52:47;;;;;;;25.30;14.73;;;;;;;17.74;91.56;101707.44;5016505;28;20493;-59
2021/07/21 03:55:16;;;;;;;23.57;14.40;;;;;;;17.65;91.28;101701.09;5017788;28;20922;-59
2021/07/21 03:57:45;;;;;;;25.30;14.63;;;;;;;17.67;91.33;101698.53;5016281;28;20483;-59
2021/07/21 04:00:16;;;;;;;23.67;14.47;;;;;;;17.60;91.70;101697.50;5014530;28;20496;-59
2021/07/21 04:02:47;;;;;;;27.40;13.77;;;;;;;17.41;91.97;101697.00;5016975;28;20488;-59
2021/07/21 04:05:15;;;;;;;23.37;13.53;;;;;;;17.46;92.38;101704.03;5017526;28;20573;-59
2021/07/21 04:07:44;;;;;;;23.23;14.27;;;;;;;17.62;92.07;101701.03;5015699;28;20485;-59
2021/07/21 04:10:13;;;;;;;25.43;14.20;;;;;;;17.57;91.78;101701.75;5014217;28;20489;-59
2021/07/21 04:12:42;;;;;;;23.40;14.40;;;;;;;17.66;91.66;101707.22;5016343;28;20787;-59
2021/07/21 04:15:11;;;;;;;25.40;13.70;;;;;;;17.64;91.32;101709.78;5017554;28;20465;-59
2021/07/21 04:17:41;;;;;;;24.10;12.87;;;;;;;17.57;91.40;101706.97;5016003;28;20482;-59
2021/07/21 04:20:10;;;;;;;29.73;14.50;;;;;;;17.58;91.76;101708.75;5017505;28;20479;-59
2021/07/21 04:22:39;;;;;;;23.00;13.80;;;;;;;17.64;91.72;101715.00;5016174;28;20476;-59
2021/07/21 04:25:10;;;;;;;32.60;15.60;;;;;;;17.60;91.94;101707.06;5017187;28;20462;-59
2021/07/21 04:27:39;;;;;;;29.20;15.50;;;;;;;17.54;91.87;101713.00;5015956;28;20491;-59
2021/07/21 04:30:08;;;;;;;25.50;14.90;;;;;;;17.67;92.28;101714.19;5017170;28;20490;-59
2021/07/21 04:32:37;;;;;;;27.37;15.03;;;;;;;17.75;91.69;101717.03;5015879;28;20491;-60
2021/07/21 04:35:08;;;;;;;33.13;15.47;;;;;;;17.86;91.55;101723.44;5017071;28;20452;-59
2021/07/21 04:37:38;;;;;;;30.00;14.30;;;;;;;17.76;91.48;101718.78;5015595;28;20919;-59
2021/07/21 04:40:07;;;;;;;30.20;14.87;;;;;;;17.70;91.46;101716.00;5017008;28;20482;-59
2021/07/21 04:42:35;;;;;;;26.33;14.57;;;;;;;17.59;91.99;101721.81;5015565;28;20788;-59
2021/07/21 04:45:02;;;;;;;31.93;15.00;;;;;;;17.61;92.16;101725.38;5016886;28;20474;-60
2021/07/21 04:47:30;;;;;;;26.03;14.40;;;;;;;17.78;91.74;101722.31;5015315;28;20919;-59
2021/07/21 04:49:58;;;;;;;31.10;14.47;;;;;;;17.78;91.65;101730.16;5016728;28;20501;-59
2021/07/21 04:52:27;;;;;;;24.33;14.30;;;;;;;17.94;91.18;101724.50;5015743;28;20574;-60
2021/07/21 04:54:55;;;;;;;26.03;14.33;;;;;;;17.98;90.68;101735.91;5013704;28;20468;-60
2021/07/21 04:57:23;;;;;;;25.00;15.03;;;;;;;18.00;90.26;101738.56;5015114;28;20489;-60
2021/07/21 04:59:50;;;;;;;25.80;13.80;;;;;;;18.01;90.25;101735.13;5016617;28;20470;-60
2021/07/21 05:02:18;;;;;;;23.10;13.50;;;;;;;17.73;91.00;101742.22;5015514;28;20474;-59
2021/07/21 05:04:47;;;;;;;29.90;13.40;;;;;;;17.83;91.04;101744.22;5016841;28;20486;-59
2021/07/21 05:07:16;;;;;;;27.10;15.40;;;;;;;17.91;90.77;101745.34;5015021;28;20800;-58
2021/07/21 05:09:45;;;;;;;30.50;14.57;;;;;;;17.90;90.70;101751.38;5016515;28;20491;-59
2021/07/21 05:12:12;;;;;;;26.67;14.23;;;;;;;17.98;90.82;101746.34;5015148;28;20494;-59
2021/07/21 05:14:40;;;;;;;30.97;14.53;;;;;;;17.70;91.10;101745.63;5016456;28;20517;-59
2021/07/21 05:17:08;;;;;;;28.27;14.57;;;;;;;17.87;91.11;101747.78;5014611;28;20484;-60
2021/07/21 05:19:36;;;;;;;23.07;13.77;;;;;;;17.74;90.87;101751.81;5015889;28;20476;-59
2021/07/21 05:22:06;;;;;;;26.77;14.10;;;;;;;17.69;91.14;101749.03;5015162;28;20512;-60
2021/07/21 05:24:33;;;;;;;25.20;14.03;;;;;;;17.71;91.53;101751.69;5016318;28;20473;-60
2021/07/21 05:27:02;;;;;;;28.50;15.00;;;;;;;17.76;91.86;101751.00;5014624;28;20487;-59
2021/07/21 05:29:30;;;;;;;33.17;14.03;;;;;;;17.85;91.43;101744.25;5015953;28;20489;-59
2021/07/21 05:31:58;;;;;;;26.23;14.17;;;;;;;17.92;91.23;101754.91;5014930;28;20485;-60
2021/07/21 05:34:26;;;;;;;28.20;14.37;;;;;;;17.81;91.24;101759.81;5016372;28;20461;-59
2021/07/21 05:36:54;;;;;;;28.40;14.80;;;;;;;17.90;91.26;101747.88;5014708;28;20493;-59
2021/07/21 05:39:21;;;;;;;24.20;13.47;;;;;;;17.76;91.54;101756.22;5015952;28;20469;-59
2021/07/21 05:41:53;;;;;;;30.73;15.73;;;;;;;18.00;91.03;101760.31;5014571;28;20495;-59
2021/07/21 05:44:21;;;;;;;26.93;13.97;;;;;;;18.04;91.06;101767.41;5016136;28;20462;-59
2021/07/21 05:46:49;;;;;;;34.70;14.03;;;;;;;17.95;90.94;101762.81;5014555;28;21153;-59
2021/07/21 05:49:17;;;;;;;29.07;15.00;;;;;;;17.89;91.65;101772.22;5015664;28;20485;-59
2021/07/21 05:51:44;;;;;;;27.17;14.10;;;;;;;17.89;92.01;101775.69;5014707;28;20577;-59
2021/07/21 05:54:12;;;;;;;24.73;14.23;;;;;;;17.94;91.59;101773.22;5012744;28;20453;-59
2021/07/21 05:56:40;;;;;;;26.87;14.30;;;;;;;17.74;92.14;101770.94;5014195;28;20803;-59
2021/07/21 05:59:07;;;;;;;30.87;16.40;;;;;;;17.83;92.28;101779.88;5015832;28;20472;-59
2021/07/21 06:01:36;;;;;;;30.27;15.23;;;;;;;17.86;92.30;101782.56;5014467;28;20486;-59
2021/07/21 06:04:05;;;;;;;25.47;14.00;;;;;;;17.90;92.14;101779.22;5015931;28;20464;-59
2021/07/21 06:06:33;;;;;;;29.43;16.20;;;;;;;17.85;92.81;101786.03;5014154;28;20484;-59
2021/07/21 06:09:00;;;;;;;29.80;14.53;;;;;;;17.95;92.64;101783.72;5015665;28;20552;-60
2021/07/21 06:11:28;;;;;;;28.87;14.60;;;;;;;17.95;92.25;101788.06;5014395;28;20481;-59
2021/07/21 06:13:57;;;;;;;34.33;15.67;;;;;;;18.16;92.55;101787.75;5012664;28;20778;-59
2021/07/21 06:16:25;;;;;;;27.20;13.97;;;;;;;18.12;91.85;101785.94;5013956;28;20485;-60
2021/07/21 06:18:54;;;;;;;27.40;15.10;;;;;;;18.07;91.88;101792.75;5015615;28;20559;-59
2021/07/21 06:21:22;;;;;;;31.57;13.60;;;;;;;18.04;91.54;101790.91;5014019;28;20945;-59
2021/07/21 06:23:49;;;;;;;25.50;14.93;;;;;;;18.03;91.90;101790.84;5015552;28;20468;-59
2021/07/21 06:26:17;;;;;;;24.40;13.23;;;;;;;17.98;91.29;101792.47;5014149;28;20495;-59
2021/07/21 06:28:45;;;;;;;24.40;13.50;;;;;;;17.98;91.35;101805.50;5015682;28;20540;-59
2021/07/21 06:31:12;;;;;;;27.23;14.33;;;;;;;18.26;90.76;101803.69;5015937;28;20479;-59
2021/07/21 06:33:40;;;;;;;26.20;13.57;;;;;;;18.63;89.58;101795.06;5019449;28;20968;-59
2021/07/21 06:36:09;;;;;;;25.07;13.20;;;;;;;18.59;88.57;101798.47;5017710;28;20484;-59
2021/07/21 06:38:37;;;;;;;24.40;13.30;;;;;;;18.68;87.86;101802.13;5019678;28;20464;-59
2021/07/21 06:41:05;;;;;;;22.77;13.60;;;;;;;18.62;87.59;101798.53;5017903;28;20476;-60
2021/07/21 06:43:32;;;;;;;22.93;12.43;;;;;;;18.38;87.84;101801.41;5019179;28;20468;-60
2021/07/21 06:46:00;;;;;;;18.83;11.77;;;;;;;18.62;87.48;101808.13;5017661;28;20483;-59
2021/07/21 06:48:27;;;;;;;20.07;11.70;;;;;;;18.84;86.17;101803.41;5019235;28;20469;-59
2021/07/21 06:50:55;;;;;;;24.33;12.17;;;;;;;18.82;85.58;101802.50;5017690;28;20944;-60
2021/07/21 06:53:24;;;;;;;17.47;11.23;;;;;;;18.72;86.32;101806.59;5019086;28;20550;-59
2021/07/21 06:55:51;;;;;;;21.50;12.33;;;;;;;18.62;87.18;101808.13;5014479;28;20485;-59
2021/07/21 06:58:19;;;;;;;20.17;12.83;;;;;;;18.76;86.73;101809.31;5018975;28;20891;-60
2021/07/21 07:00:46;;;;;;;28.67;13.47;;;;;;;18.74;87.28;101810.13;5017712;28;20486;-59
2021/07/21 07:03:14;;;;;;;20.67;12.30;;;;;;;19.08;86.61;101818.81;5018602;28;20563;-59
2021/07/21 07:05:42;;;;;;;21.10;12.43;;;;;;;18.93;86.15;101813.19;5017393;28;20464;-61
2021/07/21 07:08:09;;;;;;;21.40;12.63;;;;;;;18.86;86.35;101820.88;5018819;28;20460;-60
2021/07/21 07:10:40;;;;;;;20.77;12.10;;;;;;;18.90;85.49;101819.22;5017750;28;20490;-60
2021/07/21 07:13:07;;;;;;;23.60;12.10;;;;;;;18.91;84.79;101815.75;5018609;28;20459;-59
2021/07/21 07:15:35;;;;;;;16.83;9.60;;;;;;;18.73;84.49;101817.06;5017181;28;20776;-60
2021/07/21 07:18:02;;;;;;;18.67;9.63;;;;;;;18.97;83.51;101810.69;5018713;28;20496;-60
2021/07/21 07:20:30;;;;;;;19.50;10.30;;;;;;;19.05;82.60;101810.91;5017592;28;20596;-60
2021/07/21 07:22:57;;;;;;;19.13;10.07;;;;;;;19.23;82.93;101815.66;5018575;28;20591;-60
2021/07/21 07:25:25;;;;;;;18.87;11.03;;;;;;;19.43;82.94;101815.22;5018178;28;20493;-60
2021/07/21 07:27:54;;;;;;;16.00;9.20;;;;;;;19.20;82.09;101812.09;4998500;28;20468;-60
2021/07/21 07:30:22;;;;;;;24.10;12.33;;;;;;;19.07;82.85;101811.81;4998473;28;20776;-60
2021/07/21 07:32:49;;;;;;;20.37;11.20;;;;;;;19.08;82.41;101807.47;5016715;28;20488;-60
2021/07/21 07:35:17;;;;;;;21.23;11.00;;;;;;;18.98;83.33;101812.44;5018397;28;20459;-60
2021/07/21 07:37:44;;;;;;;20.37;10.77;;;;;;;18.94;83.84;101807.13;5016695;28;20491;-60
2021/07/21 07:40:13;;;;;;;24.33;11.30;;;;;;;18.80;84.10;101814.63;5018218;28;20477;-59
2021/07/21 07:42:40;;;;;;;20.67;11.90;;;;;;;18.85;85.22;101819.13;5015992;28;20946;-60
2021/07/21 07:45:11;;;;;;;21.30;11.20;;;;;;;18.75;85.79;101819.75;5017837;28;20456;-60
2021/07/21 07:47:38;;;;;;;24.47;11.27;;;;;;;18.62;86.32;101819.44;5016338;28;20501;-59
2021/07/21 07:50:08;;;;;;;24.07;12.10;;;;;;;18.47;87.05;101830.38;5018027;28;20485;-60
2021/07/21 07:52:36;;;;;;;19.23;10.90;;;;;;;18.61;86.90;101833.34;5016654;28;20940;-60
2021/07/21 07:55:06;;;;;;;20.37;9.47;;;;;;;18.56;87.24;101834.09;5017891;28;20659;-60
2021/07/21 07:57:34;;;;;;;20.07;10.00;;;;;;;18.23;85.21;101828.00;5012895;28;20484;-60
2021/07/21 08:00:01;;;;;;;16.50;9.20;;;;;;;18.22;84.78;101834.06;5017806;28;20494;-60
2021/07/21 08:02:30;;;;;;;13.27;8.30;;;;;;;18.19;84.61;101823.53;5016476;28;20484;-60
2021/07/21 08:04:58;;;;;;;18.40;9.03;;;;;;;18.48;84.06;101837.38;5017777;28;20943;-60
2021/07/21 08:07:29;;;;;;;18.97;9.40;;;;;;;18.41;84.07;101830.22;5012731;28;20480;-60
2021/07/21 08:09:57;;;;;;;14.03;8.43;;;;;;;18.31;83.43;101828.22;5017684;28;20766;-60
2021/07/21 08:12:24;;;;;;;14.27;7.97;;;;;;;18.38;82.94;101822.31;5016242;28;20497;-60
2021/07/21 08:14:52;;;;;;;15.53;9.10;;;;;;;18.65;81.84;101815.16;5017671;28;20463;-60
2021/07/21 08:17:19;;;;;;;18.30;9.00;;;;;;;18.73;81.81;101817.06;5015680;28;20512;-59
2021/07/21 08:19:50;;;;;;;14.83;8.27;;;;;;;18.81;80.64;101826.88;5017387;28;20460;-59
2021/07/21 08:22:18;;;;;;;15.60;8.67;;;;;;;18.91;81.29;101828.84;5016106;28;20488;-60
2021/07/21 08:24:45;;;;;;;13.73;7.73;;;;;;;19.10;80.31;101822.34;5017584;28;20463;-60
2021/07/21 08:27:13;;;;;;;11.67;8.00;;;;;;;19.02;80.48;101822.16;5015475;28;20486;-60
2021/07/21 08:29:41;;;;;;;12.20;7.67;;;;;;;18.81;80.78;101824.25;5017030;28;20463;-59
2021/07/21 08:32:08;;;;;;;13.27;7.17;;;;;;;18.49;81.69;101826.09;5015828;28;20485;-60
2021/07/21 08:34:36;;;;;;;13.80;7.40;;;;;;;18.52;82.07;101824.38;5017165;28;20914;-60
2021/07/21 08:37:05;;;;;;;15.33;8.60;;;;;;;18.65;82.25;101834.31;5015503;28;20801;-60
2021/07/21 08:39:33;;;;;;;11.43;7.27;;;;;;;18.52;82.32;101817.44;5017101;28;20460;-59
2021/07/21 08:42:01;;;;;;;12.83;8.43;;;;;;;18.69;82.06;101824.81;5015726;28;20509;-60
2021/07/21 08:44:29;;;;;;;13.07;7.80;;;;;;;18.86;81.99;101830.44;5017059;28;20482;-60
2021/07/21 08:46:57;;;;;;;14.70;8.47;;;;;;;18.88;81.20;101826.16;5015398;28;20991;-60
2021/07/21 08:49:25;;;;;;;14.20;7.67;;;;;;;19.13;80.36;101827.66;5013660;28;20562;-60
2021/07/21 08:51:54;;;;;;;13.30;8.50;;;;;;;19.28;79.09;101816.66;5015372;28;20492;-59
2021/07/21 08:54:23;;;;;;;10.77;7.07;;;;;;;19.19;79.61;101821.69;5015768;28;20462;-60
2021/07/21 08:56:51;;;;;;;11.00;7.60;;;;;;;19.34;79.15;101820.25;5015050;28;20487;-60
2021/07/21 08:59:19;;;;;;;14.10;8.27;;;;;;;19.61;78.18;101830.44;5016652;28;20467;-60
2021/07/21 09:01:46;;;;;;;14.00;6.70;;;;;;;19.76;77.33;101821.16;5015266;28;20482;-60
2021/07/21 09:04:14;;;;;;;12.03;6.70;;;;;;;19.58;77.39;101835.59;5016922;28;20472;-60
2021/07/21 09:06:42;;;;;;;13.83;7.13;;;;;;;19.55;76.62;101839.03;5015226;28;20487;-60
2021/07/21 09:09:10;;;;;;;11.67;7.23;;;;;;;19.61;76.24;101835.69;5016763;28;20462;-60
2021/07/21 09:11:40;;;;;;;13.17;7.13;;;;;;;19.86;74.40;101830.06;5014855;28;20491;-59
2021/07/21 09:14:08;;;;;;;12.93;7.37;;;;;;;19.94;74.28;101833.75;5016541;28;20721;-60
2021/07/21 09:16:35;;;;;;;13.87;7.10;;;;;;;19.77;75.37;101842.13;5014872;28;20747;-60
2021/07/21 09:19:03;;;;;;;12.47;7.10;;;;;;;19.64;75.03;101840.09;5016698;28;20459;-60
2021/07/21 09:21:31;;;;;;;12.73;7.20;;;;;;;19.40;76.14;101839.63;5015156;28;20480;-60
2021/07/21 09:23:58;;;;;;;15.97;8.20;;;;;;;19.64;76.40;101845.34;5016438;28;20460;-60
2021/07/21 09:26:38;;;;;;;10.63;5.80;;;;;;;19.33;77.52;101839.44;5014682;28;20779;-60
2021/07/21 09:29:08;;;;;;;13.37;6.70;;;;;;;19.40;78.70;101843.94;5016226;28;20452;-60
2021/07/21 09:31:37;;;;;;;15.03;8.47;;;;;;;19.45;79.05;101849.28;5014779;28;20491;-60
2021/07/21 09:34:13;;;;;;;13.00;7.70;;;;;;;19.52;78.12;101838.09;5016337;28;20527;-60
2021/07/21 09:36:40;;;;;;;16.70;8.33;;;;;;;19.40;78.90;101854.41;5014523;28;20487;-60
2021/07/21 09:39:10;;;;;;;13.10;7.83;;;;;;;18.99;80.37;101856.06;5016102;28;20759;-60
2021/07/21 09:41:39;;;;;;;13.20;7.70;;;;;;;18.69;82.50;101867.53;5014436;28;20566;-60
2021/07/21 09:44:08;;;;;;;14.50;9.00;;;;;;;18.44;85.06;101876.44;5016110;28;20472;-60
2021/07/21 09:46:38;;;;;;;13.70;8.10;;;;;;;18.22;88.62;101881.09;5014544;28;20484;-60
2021/07/21 09:49:18;;;;;;;16.77;8.40;;;;;;;18.09;90.62;101887.69;5015879;28;20475;-60
2021/07/21 09:51:46;;;;;;;16.73;9.83;;;;;;;18.10;92.29;101897.28;5014289;28;20494;-60
2021/07/21 09:54:15;;;;;;;17.27;10.53;;;;;;;18.16;93.07;101897.44;5015818;28;20475;-60
2021/07/21 09:56:44;;;;;;;20.80;10.67;;;;;;;18.20;92.95;101896.72;5011048;28;20491;-59
2021/07/21 09:59:24;;;;;;;18.50;10.93;;;;;;;18.24;91.85;101896.81;5015799;28;21281;-60
2021/07/21 10:01:53;;;;;;;17.33;9.37;;;;;;;18.42;92.26;101902.53;5011241;28;20788;-60
2021/07/21 10:04:32;;;;;;;15.93;9.43;;;;;;;18.28;92.28;101889.09;5015791;28;20469;-60
2021/07/21 10:07:03;;;;;;;15.23;10.10;;;;;;;18.60;92.51;101899.53;5013962;28;20849;-60
2021/07/21 10:09:30;;;;;;;19.40;11.30;;;;;;;18.88;91.89;101891.53;5015837;28;20460;-60
2021/07/21 10:11:58;;;;;;;13.90;9.00;;;;;;;18.94;89.62;101878.59;5014386;28;20524;-60
2021/07/21 10:14:27;;;;;;;15.10;9.33;;;;;;;19.07;89.99;101886.78;5015734;28;20460;-60
2021/07/21 10:16:55;;;;;;;13.50;7.83;;;;;;;18.83;88.78;101869.59;5014007;28;20495;-60
2021/07/21 10:19:23;;;;;;;15.50;9.23;;;;;;;19.13;88.81;101873.84;5015616;28;20465;-60
2021/07/21 10:21:55;;;;;;;13.03;8.40;;;;;;;19.19;90.19;101879.25;5014284;28;20480;-60
2021/07/21 10:24:24;;;;;;;11.83;7.67;;;;;;;19.45;86.52;101865.88;5015665;28;20488;-60
2021/07/21 10:26:53;;;;;;;12.43;8.00;;;;;;;19.60;85.69;101860.09;5014074;28;20492;-60
2021/07/21 10:29:21;;;;;;;13.80;7.87;;;;;;;19.60;85.45;101860.09;5015474;28;20466;-60
2021/07/21 10:31:50;;;;;;;12.87;7.87;;;;;;;19.77;86.41;101862.16;5013828;28;20501;-60
2021/07/21 10:34:20;;;;;;;16.07;8.80;;;;;;;19.68;85.34;101865.47;5015701;28;20458;-61
2021/07/21 10:36:48;;;;;;;15.90;8.30;;;;;;;19.48;82.97;101858.06;5013978;28;20478;-60
2021/07/21 10:39:18;;;;;;;14.70;8.50;;;;;;;19.48;83.37;101852.84;5015555;28;20688;-60
2021/07/21 10:41:47;;;;;;;17.57;9.10;;;;;;;19.58;82.61;101855.69;5014062;28;20520;-59
2021/07/21 10:44:17;;;;;;;14.03;9.10;;;;;;;19.52;82.63;101854.69;5015204;28;20465;-59
2021/07/21 10:46:46;;;;;;;15.70;8.57;;;;;;;19.35;82.35;101856.03;5013726;28;20925;-59
2021/07/21 10:49:22;;;;;;;16.10;8.43;;;;;;;19.41;82.29;101848.31;5015318;28;20457;-59
2021/07/21 10:55:03;;;;;;;13.20;8.57;;;;;;;19.75;81.17;101848.19;5006731;28;20460;-60
2021/07/21 11:00:19;;;;;;;14.40;8.10;;;;;;;19.96;78.74;101840.78;5015089;28;20490;-60
2021/07/21 11:02:49;;;;;;;16.17;9.17;;;;;;;20.09;77.43;101833.16;5013850;28;20491;-60
2021/07/21 11:05:34;;;;;;;10.53;7.60;;;;;;;20.18;77.32;101833.34;5015178;28;20771;-60
2021/07/21 11:08:04;;;;;;;14.20;8.00;;;;;;;20.26;79.54;101837.84;5014639;28;20768;-59
2021/07/21 11:10:33;;;;;;;11.43;7.90;;;;;;;20.14;77.50;101842.00;5014040;28;20483;-60
2021/07/21 11:13:01;;;;;;;12.43;7.90;;;;;;;20.07;78.96;101840.13;5014908;28;20496;-60
2021/07/21 11:15:34;;;;;;;15.90;9.07;;;;;;;20.10;77.65;101840.19;5013932;28;20468;-60
2021/07/21 11:18:41;;;;;;;13.67;8.53;;;;;;;20.12;76.10;101833.25;5016477;28;20571;-59
2021/07/21 11:21:12;;;;;;;17.10;7.93;;;;;;;20.15;76.91;101837.66;5017356;28;20482;-59
2021/07/21 11:23:41;;;;;;;12.60;8.17;;;;;;;20.29;76.98;101840.50;5018498;28;20496;-60
2021/07/21 11:26:35;;;;;;;14.03;8.50;;;;;;;20.43;75.32;101827.66;5016998;28;20484;-60
2021/07/21 11:29:35;;;;;;;13.87;8.53;;;;;;;20.36;74.88;101829.31;5018358;28;20476;-60